Time;durP1;ratioP1;P1;durP2;ratioP2;P2;SDS_P1;SDS_P2;PMS_P1;PMS_P2;Temp;Humidity;BMP_temperature;BMP_pressure;BME280_temperature;BME280_humidity;BME280_pressure;Samples;Min_cycle;Max_cycle;Signal;HPM_P1;HPM_P2
2021/12/19 00:04:12;;;;;;;15.95;10.63;;;8.60;99.90;;;;;;4143922;28;20417;-64
2021/12/19 00:08:49;;;;;;;13.98;8.82;;;8.60;99.90;;;;;;4144023;28;20034;-64
2021/12/19 00:10:49;;;;;;;16.48;10.65;;;8.60;99.90;;;;;;4139261;28;20038;-64
2021/12/19 00:12:51;;;;;;;14.45;10.07;;;8.60;99.90;;;;;;4140449;28;20538;-64
2021/12/19 00:14:52;;;;;;;16.08;10.43;;;8.60;99.90;;;;;;4140999;28;20423;-63
2021/12/19 00:16:54;;;;;;;15.15;10.55;;;8.60;99.90;;;;;;4141500;28;20034;-64
2021/12/19 00:18:55;;;;;;;13.90;10.27;;;8.60;99.90;;;;;;4145442;28;20037;-64
2021/12/19 00:20:55;;;;;;;17.42;10.63;;;8.60;99.90;;;;;;4142186;28;20066;-64
2021/12/19 00:22:56;;;;;;;15.35;10.05;;;8.60;99.90;;;;;;4139002;28;20038;-64
2021/12/19 00:24:56;;;;;;;17.50;10.55;;;8.60;99.90;;;;;;4141903;28;20477;-63
2021/12/19 00:26:57;;;;;;;14.68;9.93;;;8.60;99.90;;;;;;4138041;28;20073;-64
2021/12/19 00:29:00;;;;;;;14.80;10.15;;;8.60;99.90;;;;;;4140752;28;20038;-64
2021/12/19 00:31:02;;;;;;;15.68;10.02;;;8.60;99.90;;;;;;4142365;28;20390;-64
2021/12/19 00:33:02;;;;;;;16.85;11.57;;;8.60;99.90;;;;;;4138832;28;20543;-64
2021/12/19 00:35:03;;;;;;;16.92;11.10;;;8.60;99.90;;;;;;4141585;28;20026;-64
2021/12/19 00:37:04;;;;;;;19.73;12.13;;;8.50;99.90;;;;;;4139300;28;20022;-64
2021/12/19 00:39:05;;;;;;;15.07;10.30;;;8.50;99.90;;;;;;4137780;28;20052;-64
2021/12/19 00:41:06;;;;;;;16.63;10.45;;;8.50;99.90;;;;;;4132982;28;20027;-64
2021/12/19 00:43:10;;;;;;;16.50;10.50;;;8.50;99.90;;;;;;4137045;28;20018;-64
2021/12/19 00:45:28;;;;;;;17.65;10.13;;;8.50;99.90;;;;;;4145264;28;20026;-65
2021/12/19 00:47:29;;;;;;;13.95;8.98;;;8.60;99.90;;;;;;4138240;28;20104;-64
2021/12/19 00:49:30;;;;;;;15.20;9.30;;;8.60;99.90;;;;;;4141020;28;20029;-64
2021/12/19 00:51:31;;;;;;;15.95;11.30;;;8.60;99.90;;;;;;4145475;28;20026;-64
2021/12/19 00:53:32;;;;;;;15.88;10.57;;;8.60;99.90;;;;;;4134344;28;20136;-64
2021/12/19 00:55:32;;;;;;;17.80;11.13;;;8.50;99.90;;;;;;4132620;28;20030;-65
2021/12/19 00:57:33;;;;;;;14.30;9.77;;;8.50;99.90;;;;;;4133258;28;20030;-64
2021/12/19 00:59:34;;;;;;;16.15;10.13;;;8.50;99.90;;;;;;4137512;28;20028;-64
2021/12/19 01:01:36;;;;;;;15.63;10.10;;;8.50;99.90;;;;;;4134803;28;20031;-64
2021/12/19 01:03:38;;;;;;;15.47;9.40;;;8.50;99.90;;;;;;4142455;28;20474;-64
2021/12/19 01:05:41;;;;;;;14.97;9.57;;;8.50;99.90;;;;;;4144649;28;20113;-64
2021/12/19 01:07:42;;;;;;;16.67;9.77;;;8.50;99.90;;;;;;4140492;28;20041;-63
2021/12/19 01:09:42;;;;;;;14.20;9.20;;;8.50;99.90;;;;;;4148317;28;20400;-64
2021/12/19 01:11:47;;;;;;;12.52;8.35;;;8.50;99.90;;;;;;4148571;28;20045;-64
2021/12/19 01:13:49;;;;;;;13.57;8.05;;;8.50;99.90;;;;;;4149464;28;20547;-63
2021/12/19 01:15:51;;;;;;;12.18;8.50;;;8.50;99.90;;;;;;4140531;28;20034;-64
2021/12/19 01:17:52;;;;;;;12.68;8.70;;;8.60;99.90;;;;;;4145066;28;20068;-64
2021/12/19 01:19:52;;;;;;;14.18;8.95;;;8.50;99.90;;;;;;4149105;28;20026;-64
2021/12/19 01:21:53;;;;;;;12.70;8.65;;;8.50;99.90;;;;;;4147393;28;20026;-65
2021/12/19 01:23:53;;;;;;;13.45;8.60;;;8.50;99.90;;;;;;4137956;28;20038;-64
2021/12/19 01:25:54;;;;;;;15.85;8.85;;;8.50;99.90;;;;;;4137075;28;20030;-64
2021/12/19 01:27:55;;;;;;;13.45;8.73;;;8.50;99.90;;;;;;4142426;28;20022;-64
2021/12/19 01:29:56;;;;;;;14.15;8.48;;;8.50;99.90;;;;;;4136137;28;20113;-64
2021/12/19 01:31:57;;;;;;;11.27;7.70;;;8.50;99.90;;;;;;4139972;28;20038;-64
2021/12/19 01:33:57;;;;;;;13.80;8.85;;;8.60;99.90;;;;;;4137929;28;20038;-64
2021/12/19 01:35:58;;;;;;;11.88;7.60;;;8.60;99.90;;;;;;4139142;28;20457;-64
2021/12/19 01:37:59;;;;;;;13.20;7.85;;;8.60;99.90;;;;;;4140854;28;20042;-64
2021/12/19 01:40:00;;;;;;;12.35;8.55;;;8.60;99.90;;;;;;4144977;28;20018;-64
2021/12/19 01:42:00;;;;;;;16.63;10.57;;;8.60;99.90;;;;;;4144188;28;20041;-64
2021/12/19 01:44:01;;;;;;;15.40;9.82;;;8.60;99.90;;;;;;4140849;28;20596;-64
2021/12/19 01:46:02;;;;;;;14.50;9.57;;;8.50;99.90;;;;;;4142048;28;20034;-64
2021/12/19 01:48:07;;;;;;;17.63;10.05;;;8.50;99.90;;;;;;4140559;28;20489;-65
2021/12/19 01:50:09;;;;;;;16.95;10.45;;;8.50;99.90;;;;;;4132810;28;20087;-67
2021/12/19 01:52:10;;;;;;;17.35;10.90;;;8.50;99.90;;;;;;4137776;28;20416;-64
2021/12/19 01:54:12;;;;;;;14.65;9.60;;;8.40;99.90;;;;;;4148764;28;20068;-64
2021/12/19 01:56:13;;;;;;;16.27;10.30;;;8.50;99.90;;;;;;4148058;28;20030;-64
2021/12/19 01:58:14;;;;;;;14.80;10.23;;;8.40;99.90;;;;;;4147999;28;20033;-64
2021/12/19 02:00:26;;;;;;;14.07;9.48;;;8.50;99.90;;;;;;4147987;28;20041;-65
2021/12/19 02:02:26;;;;;;;16.35;9.48;;;8.50;99.90;;;;;;4148887;28;20160;-64
2021/12/19 02:04:30;;;;;;;15.27;9.50;;;8.40;99.90;;;;;;4112418;23;20087;-64
2021/12/19 02:06:31;;;;;;;14.52;9.55;;;8.40;99.90;;;;;;4130350;28;20037;-64
2021/12/19 02:08:32;;;;;;;16.42;10.35;;;8.50;99.90;;;;;;4148633;28;20054;-64
2021/12/19 02:10:33;;;;;;;15.02;9.73;;;8.50;99.90;;;;;;4148288;28;20077;-64
2021/12/19 02:12:34;;;;;;;15.73;9.70;;;8.40;99.90;;;;;;4148734;28;20049;-64
2021/12/19 02:14:35;;;;;;;17.77;10.13;;;8.40;99.90;;;;;;4148600;28;20072;-64
2021/12/19 02:16:38;;;;;;;17.45;10.43;;;8.40;99.90;;;;;;4147778;28;20481;-64
2021/12/19 02:18:38;;;;;;;;;;;8.30;99.90;;;;;;4148803;28;20065;-64
2021/12/19 02:20:43;;;;;;;17.73;10.43;;;8.30;99.90;;;;;;4147700;28;19905;-64
2021/12/19 02:22:44;;;;;;;15.15;10.00;;;8.30;99.90;;;;;;4148204;28;20037;-64
2021/12/19 02:24:45;;;;;;;18.50;10.23;;;8.30;99.90;;;;;;4148240;28;20065;-64
2021/12/19 02:26:47;;;;;;;15.90;9.68;;;8.30;99.90;;;;;;4147739;28;20026;-64
2021/12/19 02:28:47;;;;;;;15.18;10.00;;;8.30;99.90;;;;;;4148286;28;20113;-64
2021/12/19 02:30:49;;;;;;;14.25;9.02;;;8.30;99.90;;;;;;4147890;28;20473;-64
2021/12/19 02:32:50;;;;;;;16.33;9.70;;;8.30;99.90;;;;;;4148260;28;20486;-64
2021/12/19 02:34:53;;;;;;;15.88;10.15;;;8.30;99.90;;;;;;4148509;28;20567;-64
2021/12/19 02:37:05;;;;;;;17.60;10.90;;;8.30;99.90;;;;;;4148019;28;20141;-64
2021/12/19 02:48:11;;;;;;;16.90;10.18;;;8.20;99.90;;;;;;4148058;28;20034;-64
2021/12/19 02:50:18;;;;;;;15.38;9.10;;;8.10;99.90;;;;;;4147688;28;20388;-64
2021/12/19 02:52:20;;;;;;;15.23;9.18;;;8.10;99.90;;;;;;4148431;28;20034;-64
2021/12/19 02:54:22;;;;;;;15.48;9.55;;;8.20;99.90;;;;;;4148254;28;20092;-64
2021/12/19 02:56:23;;;;;;;15.32;8.77;;;8.20;99.90;;;;;;4147659;28;20104;-64
2021/12/19 02:58:24;;;;;;;14.13;9.52;;;8.30;99.90;;;;;;4147964;28;20393;-64
2021/12/19 03:00:26;;;;;;;15.45;9.43;;;8.30;99.90;;;;;;4147332;28;20037;-64
2021/12/19 03:02:27;;;;;;;13.57;8.52;;;8.30;99.90;;;;;;4148143;28;20034;-64
2021/12/19 03:04:27;;;;;;;16.70;9.70;;;8.30;99.90;;;;;;4147639;28;20476;-63
2021/12/19 03:06:28;;;;;;;14.65;9.18;;;8.30;99.90;;;;;;4147510;28;20101;-64
2021/12/19 03:08:32;;;;;;;15.32;9.35;;;8.30;99.90;;;;;;4148281;28;20022;-64
2021/12/19 03:13:05;;;;;;;15.90;9.48;;;8.30;99.90;;;;;;4151061;28;20549;-64
2021/12/19 03:19:46;;;;;;;14.38;9.20;;;8.30;99.90;;;;;;4150939;28;20030;-64
2021/12/19 03:21:47;;;;;;;17.33;9.98;;;8.20;99.90;;;;;;4150267;28;20119;-64
2021/12/19 03:23:48;;;;;;;15.57;9.43;;;8.30;99.90;;;;;;4150957;28;20124;-64
2021/12/19 03:25:49;;;;;;;15.57;9.73;;;8.20;99.90;;;;;;4150129;28;20030;-64
2021/12/19 03:27:49;;;;;;;14.68;9.27;;;8.20;99.90;;;;;;4150828;28;20033;-64
2021/12/19 03:29:50;;;;;;;14.65;9.45;;;8.30;99.90;;;;;;4150955;28;20034;-64
2021/12/19 03:31:51;;;;;;;19.33;9.40;;;8.30;99.90;;;;;;4150295;28;20022;-64
2021/12/19 03:33:51;;;;;;;14.48;8.95;;;8.30;99.90;;;;;;4150966;28;20040;-64
2021/12/19 03:35:52;;;;;;;15.43;9.70;;;8.30;99.90;;;;;;4150152;28;20033;-64
2021/12/19 03:37:53;;;;;;;18.55;10.25;;;8.30;99.90;;;;;;4151110;28;20060;-64
2021/12/19 03:40:07;;;;;;;15.50;9.77;;;8.30;99.90;;;;;;4150766;28;20033;-64
2021/12/19 03:42:08;;;;;;;15.30;9.68;;;8.30;99.90;;;;;;4150330;28;20152;-63
2021/12/19 03:44:09;;;;;;;15.75;9.25;;;8.30;99.90;;;;;;4150466;28;20034;-64
2021/12/19 03:46:09;;;;;;;17.35;9.85;;;8.30;99.90;;;;;;4150037;28;20114;-63
2021/12/19 03:48:12;;;;;;;17.95;10.02;;;8.30;99.90;;;;;;4150720;28;20133;-63
2021/12/19 03:50:18;;;;;;;18.02;9.55;;;8.30;99.90;;;;;;4149665;28;20045;-64
2021/12/19 03:52:19;;;;;;;17.13;9.50;;;8.20;99.90;;;;;;4150661;28;20112;-64
2021/12/19 03:54:19;;;;;;;19.48;11.45;;;8.20;99.90;;;;;;4150704;28;20543;-63
2021/12/19 03:56:20;;;;;;;20.83;11.45;;;8.20;99.90;;;;;;4149862;28;20030;-63
2021/12/19 03:58:21;;;;;;;18.85;10.02;;;8.10;99.90;;;;;;4150405;28;20041;-64
2021/12/19 04:00:24;;;;;;;20.33;11.82;;;8.10;99.90;;;;;;4149759;28;20435;-64
2021/12/19 04:02:27;;;;;;;21.55;10.60;;;8.10;99.90;;;;;;4150322;28;20048;-63
2021/12/19 04:04:30;;;;;;;20.38;10.75;;;8.10;99.90;;;;;;4149760;28;20115;-64
2021/12/19 04:06:30;;;;;;;20.02;12.10;;;8.10;99.90;;;;;;4149575;28;20045;-64
2021/12/19 04:08:31;;;;;;;25.60;12.93;;;8.10;99.90;;;;;;4150630;28;20045;-64
2021/12/19 04:10:31;;;;;;;20.40;10.95;;;8.00;99.90;;;;;;4149637;28;20487;-64
2021/12/19 04:12:32;;;;;;;21.33;11.60;;;8.00;99.90;;;;;;4150112;28;20037;-63
2021/12/19 04:14:32;;;;;;;22.10;11.25;;;7.90;99.90;;;;;;4150227;28;20038;-64
2021/12/19 04:16:33;;;;;;;20.70;11.02;;;7.90;99.90;;;;;;4149365;28;20068;-64
2021/12/19 04:18:34;;;;;;;24.50;11.63;;;7.90;99.90;;;;;;4150216;28;20034;-63
2021/12/19 04:20:35;;;;;;;19.80;10.50;;;8.00;99.90;;;;;;4148372;28;20030;-64
2021/12/19 04:22:35;;;;;;;20.17;10.57;;;8.00;99.90;;;;;;4150099;28;20033;-64
2021/12/19 04:24:36;;;;;;;21.83;11.55;;;8.00;99.90;;;;;;4149880;28;20041;-62
2021/12/19 04:26:36;;;;;;;19.63;11.48;;;7.90;99.90;;;;;;4149496;28;20037;-64
2021/12/19 04:28:37;;;;;;;21.85;10.70;;;7.90;99.90;;;;;;4149824;28;20061;-64
2021/12/19 04:30:38;;;;;;;22.17;11.68;;;8.00;99.90;;;;;;4149341;28;20034;-64
2021/12/19 04:32:45;;;;;;;17.73;9.48;;;7.90;99.90;;;;;;4149975;28;20481;-64
2021/12/19 04:34:45;;;;;;;20.55;10.65;;;7.90;99.90;;;;;;4149732;28;20105;-64
2021/12/19 04:36:50;;;;;;;21.88;10.93;;;7.80;99.90;;;;;;4149009;28;20041;-64
2021/12/19 04:44:22;;;;;;;22.85;11.60;;;7.90;99.90;;;;;;4150081;28;20057;-64
2021/12/19 04:57:28;;;;;;;28.05;12.85;;;7.70;99.90;;;;;;4143456;28;20188;-63
2021/12/19 05:04:37;;;;;;;29.83;14.18;;;7.70;99.90;;;;;;4133074;28;20111;-64
2021/12/19 05:14:05;;;;;;;25.52;12.45;;;7.70;99.90;;;;;;4143318;28;20030;-64
2021/12/19 05:15:51;;;;;;;28.55;13.45;;;7.80;99.90;;;;;;4148416;28;20026;-63
2021/12/19 05:17:55;;;;;;;28.42;13.35;;;7.80;99.90;;;;;;4149269;28;20400;-64
2021/12/19 05:20:16;;;;;;;26.85;12.93;;;7.80;99.90;;;;;;4149363;28;20030;-64
2021/12/19 05:22:18;;;;;;;28.50;13.98;;;7.80;99.90;;;;;;4148980;28;20473;-64
2021/12/19 05:24:45;;;;;;;32.47;14.75;;;7.90;99.90;;;;;;4149199;28;20099;-63
2021/12/19 05:26:44;;;;;;;31.05;14.15;;;7.80;99.90;;;;;;4148021;28;20041;-64
2021/12/19 05:28:48;;;;;;;28.17;14.00;;;7.80;99.90;;;;;;4149302;28;20469;-64
2021/12/19 05:30:48;;;;;;;25.27;12.50;;;7.70;99.90;;;;;;4148533;28;20033;-64
2021/12/19 05:32:51;;;;;;;23.77;12.45;;;7.60;99.90;;;;;;4148941;28;20146;-64
2021/12/19 05:34:51;;;;;;;22.90;11.57;;;7.60;99.90;;;;;;4149051;28;20053;-64
2021/12/19 05:46:09;;;;;;;18.25;10.30;;;7.60;99.90;;;;;;4148347;28;20465;-64
2021/12/19 05:48:10;;;;;;;21.33;10.45;;;7.50;99.90;;;;;;4148700;28;20037;-64
2021/12/19 05:50:10;;;;;;;18.35;9.77;;;7.50;99.90;;;;;;4148122;28;20042;-66
2021/12/19 05:52:12;;;;;;;17.83;9.20;;;7.50;99.90;;;;;;4148743;28;20034;-64
2021/12/19 05:54:13;;;;;;;15.50;8.75;;;7.50;99.90;;;;;;4131601;28;20605;-64
2021/12/19 05:56:14;;;;;;;19.58;10.25;;;7.50;99.90;;;;;;4147915;28;20075;-64
2021/12/19 05:58:14;;;;;;;17.63;9.38;;;7.50;99.90;;;;;;4147680;28;20025;-64
2021/12/19 06:00:17;;;;;;;16.38;8.63;;;7.50;99.90;;;;;;4154365;28;20030;-64
2021/12/19 06:02:18;;;;;;;;;;;7.50;99.90;;;;;;4164390;28;20041;-64
2021/12/19 06:04:18;;;;;;;15.50;7.28;;;7.50;99.90;;;;;;4163998;28;19917;-64
2021/12/19 06:06:19;;;;;;;15.95;8.05;;;7.50;99.90;;;;;;4150892;28;20044;-64
2021/12/19 06:08:20;;;;;;;15.70;8.57;;;7.50;99.90;;;;;;4148796;28;20036;-64
2021/12/19 06:10:20;;;;;;;15.15;8.07;;;7.50;99.90;;;;;;4147992;28;20068;-64
2021/12/19 06:12:21;;;;;;;16.80;8.52;;;7.50;99.90;;;;;;4148835;28;20393;-63
2021/12/19 06:14:22;;;;;;;12.77;7.88;;;7.50;99.90;;;;;;4148570;28;20447;-63
2021/12/19 06:16:23;;;;;;;13.02;7.45;;;7.50;99.90;;;;;;4148120;28;20034;-63
2021/12/19 06:18:24;;;;;;;12.70;7.25;;;7.50;99.90;;;;;;4148663;28;20088;-63
2021/12/19 06:20:28;;;;;;;13.18;7.65;;;7.50;99.90;;;;;;4148125;28;20076;-63
2021/12/19 06:22:29;;;;;;;14.40;7.88;;;7.50;99.90;;;;;;4148778;28;20038;-64
2021/12/19 06:24:30;;;;;;;16.40;8.50;;;7.50;99.90;;;;;;4131051;28;20093;-64
2021/12/19 06:26:35;;;;;;;11.70;7.20;;;7.50;99.90;;;;;;4148212;28;20443;-64
2021/12/19 06:28:36;;;;;;;12.75;6.90;;;7.50;99.90;;;;;;4148780;28;20034;-64
2021/12/19 06:30:37;;;;;;;11.38;6.78;;;7.50;99.90;;;;;;4147690;28;20041;-64
2021/12/19 06:32:38;;;;;;;13.00;6.70;;;7.60;99.90;;;;;;4130735;28;20035;-64
2021/12/19 06:34:38;;;;;;;11.55;6.28;;;7.50;99.90;;;;;;4148579;28;20030;-64
2021/12/19 06:36:40;;;;;;;11.50;6.47;;;7.40;99.90;;;;;;4147913;28;20117;-64
2021/12/19 06:38:42;;;;;;;14.02;5.53;;;7.40;99.90;;;;;;4131243;28;20030;-64
2021/12/19 06:40:43;;;;;;;9.40;5.70;;;7.50;99.90;;;;;;4147845;28;20034;-64
2021/12/19 06:42:44;;;;;;;11.07;5.80;;;7.50;99.90;;;;;;4148601;28;20036;-64
2021/12/19 06:44:45;;;;;;;9.27;5.35;;;7.60;99.90;;;;;;4150604;28;20473;-64
2021/12/19 06:46:45;;;;;;;10.80;6.10;;;7.60;99.90;;;;;;4150791;28;20034;-63
2021/12/19 06:48:46;;;;;;;9.23;5.72;;;7.60;99.90;;;;;;4151662;28;20181;-63
2021/12/19 06:50:47;;;;;;;11.45;5.82;;;7.60;99.90;;;;;;4150819;28;20080;-64
2021/12/19 06:52:48;;;;;;;11.10;6.00;;;7.60;99.90;;;;;;4151803;28;20477;-64
2021/12/19 06:54:48;;;;;;;10.75;6.05;;;7.60;99.90;;;;;;4151483;28;20501;-64
2021/12/19 06:56:49;;;;;;;11.35;5.72;;;7.70;99.90;;;;;;4133526;28;20077;-63
2021/12/19 06:58:50;;;;;;;10.25;5.72;;;7.70;99.90;;;;;;4151417;28;20038;-63
2021/12/19 07:00:51;;;;;;;12.18;6.72;;;7.70;99.90;;;;;;4150858;28;20096;-64
2021/12/19 07:02:54;;;;;;;12.68;6.32;;;7.70;99.90;;;;;;4151062;28;20465;-63
2021/12/19 07:04:54;;;;;;;13.07;6.70;;;7.60;99.90;;;;;;4151114;28;20381;-63
2021/12/19 07:06:55;;;;;;;9.98;5.55;;;7.70;99.90;;;;;;4150538;28;20041;-63
2021/12/19 07:08:56;;;;;;;8.18;5.13;;;7.60;99.90;;;;;;4148278;28;20040;-64
2021/12/19 07:10:56;;;;;;;9.13;5.57;;;7.70;99.90;;;;;;4139728;28;20034;-64
2021/12/19 07:12:57;;;;;;;9.60;5.60;;;7.70;99.90;;;;;;4139871;28;20061;-63
2021/12/19 07:14:58;;;;;;;10.85;6.07;;;7.70;99.90;;;;;;4140046;28;20042;-63
2021/12/19 07:16:59;;;;;;;11.00;5.72;;;7.70;99.90;;;;;;4137821;28;20048;-64
2021/12/19 07:18:59;;;;;;;8.15;5.22;;;7.70;99.90;;;;;;4143776;28;20469;-64
2021/12/19 07:21:00;;;;;;;9.82;5.53;;;7.70;99.90;;;;;;4138878;28;20034;-64
2021/12/19 07:23:01;;;;;;;10.63;5.63;;;7.70;99.90;;;;;;4133218;28;20033;-64
2021/12/19 07:25:02;;;;;;;9.10;4.93;;;7.70;99.90;;;;;;4144596;28;20473;-66
2021/12/19 07:27:03;;;;;;;10.65;6.07;;;7.70;99.90;;;;;;4144166;28;20037;-64
2021/12/19 07:29:04;;;;;;;11.27;6.90;;;7.70;99.90;;;;;;4141250;28;20023;-64
2021/12/19 07:31:05;;;;;;;10.73;6.43;;;7.70;99.90;;;;;;4144155;28;20030;-64
2021/12/19 07:33:07;;;;;;;10.75;5.80;;;7.70;99.90;;;;;;4144153;28;20101;-64
2021/12/19 07:35:09;;;;;;;9.20;5.22;;;7.80;99.90;;;;;;4144371;28;20057;-64
2021/12/19 07:37:10;;;;;;;8.93;5.68;;;7.80;99.90;;;;;;4133085;28;20030;-64
2021/12/19 07:39:23;;;;;;;8.75;5.38;;;7.80;99.90;;;;;;4139932;28;20120;-65
2021/12/19 07:41:24;;;;;;;9.35;5.43;;;7.90;99.90;;;;;;4145154;28;20061;-64
2021/12/19 07:43:25;;;;;;;12.65;6.60;;;7.80;99.90;;;;;;4137028;28;20026;-64
2021/12/19 07:45:26;;;;;;;9.73;5.30;;;7.80;99.90;;;;;;4150286;28;20065;-64
2021/12/19 07:47:26;;;;;;;10.90;5.53;;;7.80;99.90;;;;;;4141768;28;20034;-64
2021/12/19 07:49:27;;;;;;;9.82;5.88;;;7.80;99.90;;;;;;4139719;28;20037;-64
2021/12/19 07:51:29;;;;;;;15.52;8.00;;;7.80;99.90;;;;;;4139350;28;20039;-64
2021/12/19 07:53:29;;;;;;;12.38;6.90;;;7.80;99.90;;;;;;4141200;28;20038;-64
2021/12/19 07:55:31;;;;;;;11.75;7.07;;;7.90;99.90;;;;;;4139453;28;20635;-64
2021/12/19 07:57:31;;;;;;;10.95;6.70;;;7.80;99.90;;;;;;4140692;28;20092;-64
2021/12/19 07:59:32;;;;;;;14.35;7.95;;;7.80;99.90;;;;;;4144190;28;20108;-64
2021/12/19 08:01:33;;;;;;;10.85;7.00;;;7.70;99.90;;;;;;4143662;28;20076;-64
2021/12/19 08:03:34;;;;;;;12.68;6.60;;;7.80;99.90;;;;;;4142546;28;20525;-64
2021/12/19 08:05:34;;;;;;;11.05;6.78;;;7.70;99.90;;;;;;4140296;28;20050;-64
2021/12/19 08:07:38;;;;;;;12.00;6.68;;;7.80;99.90;;;;;;4143867;28;20030;-64
2021/12/19 08:09:56;;;;;;;12.50;6.90;;;7.80;99.90;;;;;;4142285;28;20046;-64
2021/12/19 08:11:57;;;;;;;10.57;6.60;;;7.80;99.90;;;;;;4142804;28;20041;-64
2021/12/19 08:13:57;;;;;;;12.98;6.18;;;7.80;99.90;;;;;;4137977;28;20065;-64
2021/12/19 08:15:58;;;;;;;14.50;6.75;;;7.80;99.90;;;;;;4143361;28;20037;-64
2021/12/19 08:17:59;;;;;;;11.20;6.22;;;7.80;99.90;;;;;;4145748;28;20397;-64
2021/12/19 08:20:01;;;;;;;12.65;6.70;;;7.80;99.90;;;;;;4137089;28;20508;-64
2021/12/19 08:22:02;;;;;;;11.07;6.03;;;7.80;99.90;;;;;;4143294;28;20076;-64
2021/12/19 08:24:09;;;;;;;10.50;5.43;;;7.80;99.90;;;;;;4143587;28;20038;-64
2021/12/19 08:26:10;;;;;;;10.68;6.30;;;7.80;99.90;;;;;;4143013;28;20067;-64
2021/12/19 08:28:10;;;;;;;9.77;5.85;;;7.80;99.90;;;;;;4144139;28;20119;-64
2021/12/19 08:30:12;;;;;;;11.65;5.80;;;7.80;99.90;;;;;;4143304;28;20038;-65
2021/12/19 08:32:13;;;;;;;9.93;5.68;;;7.80;99.90;;;;;;4143716;28;20085;-64
2021/12/19 08:34:14;;;;;;;7.63;4.72;;;7.90;99.90;;;;;;4142069;28;20038;-64
2021/12/19 08:36:15;;;;;;;8.32;4.88;;;7.80;99.90;;;;;;4138281;28;20481;-63
2021/12/19 08:38:16;;;;;;;9.18;5.38;;;7.80;99.90;;;;;;4139479;28;20153;-64
2021/12/19 08:40:17;;;;;;;9.75;5.70;;;7.80;99.90;;;;;;4147845;28;20038;-64
2021/12/19 08:42:18;;;;;;;8.13;4.70;;;7.80;99.90;;;;;;4143983;28;20038;-64
2021/12/19 08:44:18;;;;;;;9.75;5.18;;;7.80;99.90;;;;;;4134332;28;20061;-64
2021/12/19 08:46:19;;;;;;;6.85;4.07;;;7.80;99.90;;;;;;4138290;28;20030;-64
2021/12/19 08:48:20;;;;;;;6.93;4.30;;;7.80;99.90;;;;;;4143852;28;20096;-64
2021/12/19 08:50:23;;;;;;;8.23;5.10;;;7.80;99.90;;;;;;4136047;28;20035;-64
2021/12/19 08:52:23;;;;;;;6.35;4.20;;;7.80;99.90;;;;;;4143489;28;20023;-63
2021/12/19 08:54:24;;;;;;;5.80;3.50;;;7.80;99.90;;;;;;4142487;28;20487;-64
2021/12/19 08:56:24;;;;;;;4.63;3.20;;;7.80;99.90;;;;;;4139274;28;20026;-64
2021/12/19 08:58:28;;;;;;;6.25;3.95;;;7.80;99.90;;;;;;4128161;28;20030;-64
2021/12/19 09:00:30;;;;;;;5.65;3.50;;;7.80;99.90;;;;;;4145101;28;20030;-65
2021/12/19 09:02:31;;;;;;;6.03;3.70;;;7.80;99.90;;;;;;4145856;28;20042;-63
2021/12/19 09:04:32;;;;;;;4.90;3.55;;;7.80;99.90;;;;;;4143913;28;20082;-63
2021/12/19 09:06:33;;;;;;;6.43;3.80;;;7.80;99.90;;;;;;4142645;28;20146;-64
2021/12/19 09:08:34;;;;;;;6.03;3.80;;;7.90;99.90;;;;;;4143194;28;20044;-64
2021/12/19 09:10:35;;;;;;;7.88;3.90;;;7.90;99.90;;;;;;4141595;28;20057;-64
2021/12/19 09:12:36;;;;;;;4.72;3.08;;;7.90;99.90;;;;;;4132096;28;20030;-64
2021/12/19 09:14:37;;;;;;;5.10;3.30;;;7.80;99.90;;;;;;4147173;28;20026;-63
2021/12/19 09:16:38;;;;;;;4.90;3.33;;;7.90;99.90;;;;;;4142350;28;20031;-64
2021/12/19 09:18:39;;;;;;;4.55;2.75;;;7.90;99.90;;;;;;4143082;28;20031;-64
2021/12/19 09:20:39;;;;;;;6.00;3.53;;;7.90;99.90;;;;;;4142237;28;20033;-64
2021/12/19 09:22:40;;;;;;;5.55;3.22;;;7.90;99.90;;;;;;4141721;28;20118;-64
2021/12/19 09:24:42;;;;;;;4.30;3.00;;;7.90;99.90;;;;;;4135341;28;20540;-64
2021/12/19 09:26:42;;;;;;;5.82;3.55;;;7.90;99.90;;;;;;4142066;28;20038;-64
2021/12/19 09:28:43;;;;;;;5.13;3.50;;;7.90;99.90;;;;;;4142767;28;20038;-64
2021/12/19 09:30:45;;;;;;;5.72;3.55;;;7.90;99.90;;;;;;4140866;28;20039;-64
2021/12/19 09:32:45;;;;;;;4.53;3.38;;;7.90;99.90;;;;;;4135878;28;20038;-64
2021/12/19 09:34:46;;;;;;;6.95;3.47;;;7.90;99.90;;;;;;4141168;28;20358;-64
2021/12/19 09:36:47;;;;;;;4.78;3.33;;;7.90;99.90;;;;;;4141924;28;20469;-64
2021/12/19 09:38:48;;;;;;;7.72;3.60;;;7.90;99.90;;;;;;4143617;28;20030;-63
2021/12/19 09:40:50;;;;;;;4.60;2.83;;;7.90;99.90;;;;;;4130442;28;20037;-64
2021/12/19 09:43:00;;;;;;;6.45;3.40;;;8.00;99.90;;;;;;4138592;28;20037;-64
2021/12/19 09:45:04;;;;;;;5.03;3.40;;;8.00;99.90;;;;;;4142482;28;20137;-64
2021/12/19 09:47:07;;;;;;;5.22;3.45;;;8.00;99.90;;;;;;4142185;28;20370;-64
2021/12/19 09:49:10;;;;;;;4.65;3.30;;;8.10;99.90;;;;;;4124016;28;20036;-64
2021/12/19 09:51:12;;;;;;;4.68;3.22;;;8.00;99.90;;;;;;4140706;28;20136;-64
2021/12/19 09:53:13;;;;;;;6.32;3.20;;;8.10;99.90;;;;;;4142342;28;20469;-64
2021/12/19 09:55:19;;;;;;;4.68;3.30;;;8.00;99.90;;;;;;4133474;28;20081;-64
2021/12/19 09:57:19;;;;;;;4.22;3.15;;;8.10;99.90;;;;;;4142553;28;20030;-63
2021/12/19 09:59:21;;;;;;;4.13;3.13;;;8.10;99.90;;;;;;4133204;28;20034;-64
2021/12/19 10:01:22;;;;;;;5.38;3.42;;;8.10;99.90;;;;;;4141917;28;20465;-64
2021/12/19 10:03:23;;;;;;;4.88;3.20;;;8.10;99.90;;;;;;4142510;28;20109;-64
2021/12/19 10:05:25;;;;;;;6.85;3.25;;;8.10;99.90;;;;;;4137131;28;20620;-64
2021/12/19 10:07:29;;;;;;;4.18;3.00;;;8.10;99.90;;;;;;4134725;28;20033;-64
2021/12/19 10:09:29;;;;;;;4.80;3.63;;;8.10;99.90;;;;;;4132403;28;20488;-64
2021/12/19 10:11:45;;;;;;;5.40;3.70;;;8.10;99.90;;;;;;4141647;28;20033;-64
2021/12/19 10:13:45;;;;;;;7.20;3.53;;;8.10;99.90;;;;;;4138218;28;20038;-64
2021/12/19 10:15:46;;;;;;;6.10;3.08;;;8.10;99.90;;;;;;4142407;28;20037;-64
2021/12/19 10:17:57;;;;;;;5.90;3.38;;;8.10;99.90;;;;;;4136311;28;20042;-64
2021/12/19 10:19:59;;;;;;;6.13;2.72;;;8.10;99.90;;;;;;4139587;28;20034;-64
2021/12/19 10:22:00;;;;;;;4.03;2.90;;;8.10;99.90;;;;;;4140459;28;20034;-64
2021/12/19 10:24:02;;;;;;;4.68;2.97;;;8.20;99.90;;;;;;4138129;28;20053;-64
2021/12/19 10:26:03;;;;;;;;;;;8.20;99.90;;;;;;4130562;28;20035;-64
2021/12/19 10:28:07;;;;;;;3.50;2.38;;;8.20;99.90;;;;;;4139454;28;19909;-64
2021/12/19 10:30:18;;;;;;;3.92;2.50;;;8.20;99.90;;;;;;4145193;28;20470;-64
2021/12/19 10:32:19;;;;;;;2.45;1.95;;;8.20;99.90;;;;;;4140660;28;20030;-64
2021/12/19 10:34:23;;;;;;;3.53;2.15;;;8.30;99.90;;;;;;4140115;28;20061;-64
2021/12/19 10:36:24;;;;;;;3.00;2.00;;;8.30;99.90;;;;;;4141234;28;20473;-64
2021/12/19 10:38:33;;;;;;;3.53;2.38;;;8.40;99.90;;;;;;4141954;28;20041;-64
2021/12/19 10:40:33;;;;;;;3.00;2.28;;;8.40;99.90;;;;;;4134284;28;20034;-64
2021/12/19 10:42:48;;;;;;;2.75;2.10;;;8.40;99.90;;;;;;4142006;28;20030;-64
2021/12/19 10:47:24;;;;;;;4.22;2.38;;;8.50;99.90;;;;;;4136289;28;20449;-64
2021/12/19 10:49:33;;;;;;;3.03;2.20;;;8.50;99.90;;;;;;4139329;28;20041;-64
2021/12/19 10:51:39;;;;;;;2.42;1.80;;;8.50;99.90;;;;;;4136244;28;20038;-64
2021/12/19 10:53:43;;;;;;;2.92;2.00;;;8.50;99.90;;;;;;4141719;28;20469;-64
2021/12/19 10:55:46;;;;;;;2.38;1.90;;;8.60;99.90;;;;;;4141110;28;20048;-64
2021/12/19 10:57:48;;;;;;;2.17;1.90;;;8.60;99.90;;;;;;4141789;28;20032;-64
2021/12/19 10:59:48;;;;;;;3.47;2.20;;;8.60;99.90;;;;;;4142429;28;20038;-64
2021/12/19 11:01:52;;;;;;;1.73;1.48;;;8.60;99.90;;;;;;4139841;28;20034;-64
2021/12/19 11:03:58;;;;;;;2.15;1.45;;;8.60;99.90;;;;;;4138053;28;20373;-64
2021/12/19 11:05:59;;;;;;;2.80;1.95;;;8.60;99.90;;;;;;4141247;28;20076;-64
2021/12/19 11:08:02;;;;;;;1.83;1.40;;;8.70;99.90;;;;;;4141885;28;20465;-64
2021/12/19 11:10:26;;;;;;;1.85;1.23;;;8.60;99.90;;;;;;4137452;28;20109;-65
2021/12/19 11:12:27;;;;;;;1.35;1.23;;;8.60;99.90;;;;;;4134295;28;20516;-64
2021/12/19 11:14:31;;;;;;;1.27;1.02;;;8.60;99.90;;;;;;4138777;28;20042;-64
2021/12/19 11:16:32;;;;;;;3.00;1.15;;;8.60;99.90;;;;;;4137393;28;20029;-64
2021/12/19 11:18:33;;;;;;;1.15;0.88;;;8.50;99.90;;;;;;4142522;28;20030;-64
2021/12/19 11:20:34;;;;;;;1.30;0.90;;;8.40;99.90;;;;;;4133330;28;20487;-64
2021/12/19 11:22:34;;;;;;;2.40;1.20;;;8.30;99.90;;;;;;4141340;28;20378;-64
2021/12/19 11:24:35;;;;;;;1.13;0.90;;;8.30;99.90;;;;;;4137446;28;20439;-64
2021/12/19 11:26:37;;;;;;;1.33;0.90;;;8.30;99.90;;;;;;4140526;28;20042;-64
2021/12/19 11:28:38;;;;;;;2.50;1.08;;;8.30;99.90;;;;;;4137519;28;20461;-64
2021/12/19 11:30:39;;;;;;;3.00;1.65;;;8.30;99.90;;;;;;4142851;28;20037;-64
2021/12/19 11:33:05;;;;;;;1.60;1.15;;;8.30;99.90;;;;;;4143086;28;20038;-63
2021/12/19 11:35:28;;;;;;;1.25;1.15;;;8.30;99.90;;;;;;4139758;28;20042;-66
2021/12/19 11:37:39;;;;;;;1.20;1.08;;;8.30;99.90;;;;;;4139628;28;20508;-63
2021/12/19 11:39:46;;;;;;;1.80;1.00;;;8.40;99.90;;;;;;4144489;28;20037;-64